createdAt,value
2018-04-18T00:00:01.789Z,0
2018-04-18T00:01:02.503Z,0
2018-04-18T00:02:03.215Z,0
2018-04-18T00:03:03.927Z,0
2018-04-18T00:04:04.644Z,0
2018-04-18T00:05:05.355Z,0
2018-04-18T00:06:06.068Z,0
2018-04-18T00:07:06.793Z,0
2018-04-18T00:08:07.509Z,0
2018-04-18T00:09:08.223Z,0
2018-04-18T00:10:08.933Z,0
2018-04-18T00:11:09.661Z,0
2018-04-18T00:12:10.390Z,0
2018-04-18T00:13:11.103Z,0
2018-04-18T00:14:11.817Z,0
2018-04-18T00:15:12.531Z,0
2018-04-18T00:16:13.246Z,0
2018-04-18T00:17:13.960Z,0
2018-04-18T00:18:14.673Z,0
2018-04-18T00:19:15.390Z,0
2018-04-18T00:20:16.100Z,0
2018-04-18T00:21:16.815Z,0
2018-04-18T00:22:17.529Z,0
2018-04-18T00:23:18.250Z,0
2018-04-18T00:24:18.957Z,0
2018-04-18T00:25:19.670Z,0
2018-04-18T00:26:20.382Z,0
2018-04-18T00:27:21.096Z,0
2018-04-18T00:28:21.807Z,0
2018-04-18T00:29:22.520Z,0
2018-04-18T00:30:23.233Z,0
2018-04-18T00:31:23.944Z,0
2018-04-18T00:32:24.657Z,0
2018-04-18T00:33:25.370Z,0
2018-04-18T00:34:26.083Z,0
2018-04-18T00:35:26.796Z,0
2018-04-18T00:36:27.525Z,0
2018-04-18T00:37:28.239Z,0
2018-04-18T00:38:28.966Z,0
2018-04-18T00:39:29.679Z,0
2018-04-18T00:40:30.392Z,0
2018-04-18T00:41:31.106Z,0
2018-04-18T00:42:31.819Z,0
2018-04-18T00:43:32.544Z,0
2018-04-18T00:44:33.269Z,0
2018-04-18T00:45:33.983Z,0
2018-04-18T00:46:34.699Z,0
2018-04-18T00:47:35.414Z,0
2018-04-18T00:48:36.140Z,0
2018-04-18T00:49:36.854Z,0
2018-04-18T00:50:37.568Z,0
2018-04-18T00:51:38.300Z,0
2018-04-18T00:52:39.010Z,0
2018-04-18T00:53:39.737Z,0
2018-04-18T00:54:40.449Z,0
2018-04-18T00:55:41.162Z,0
2018-04-18T00:56:41.876Z,0
2018-04-18T00:57:42.589Z,0
2018-04-18T00:58:43.301Z,0
2018-04-18T00:59:44.029Z,0
2018-04-18T01:00:44.739Z,0
2018-04-18T01:01:45.457Z,0
2018-04-18T01:02:46.181Z,0
2018-04-18T01:03:46.909Z,0
2018-04-18T01:04:47.651Z,0
2018-04-18T01:05:48.336Z,0
2018-04-18T01:06:49.048Z,0
2018-04-18T01:07:49.768Z,0
2018-04-18T01:08:50.478Z,0
2018-04-18T01:09:51.203Z,0
2018-04-18T01:10:51.916Z,0
2018-04-18T01:11:52.629Z,0
2018-04-18T01:12:53.340Z,0
2018-04-18T01:13:54.052Z,0
2018-04-18T01:14:54.765Z,0
2018-04-18T01:15:55.511Z,0
2018-04-18T01:16:56.195Z,0
2018-04-18T01:17:56.904Z,0
2018-04-18T01:18:57.615Z,0
2018-04-18T01:19:58.340Z,0
2018-04-18T01:20:59.053Z,0
2018-04-18T01:21:59.779Z,0
2018-04-18T01:23:00.491Z,0
2018-04-18T01:24:01.206Z,0
2018-04-18T01:25:01.924Z,0
2018-04-18T01:26:02.634Z,0
2018-04-18T01:27:03.356Z,0
2018-04-18T01:28:04.075Z,0
2018-04-18T01:29:04.780Z,0
2018-04-18T01:30:05.492Z,0
2018-04-18T01:31:06.218Z,0
2018-04-18T01:32:06.948Z,0
2018-04-18T01:33:07.662Z,0
2018-04-18T01:34:08.376Z,0
2018-04-18T01:35:09.098Z,0
2018-04-18T01:36:09.835Z,0
2018-04-18T01:37:10.588Z,0
2018-04-18T01:38:11.331Z,0
2018-04-18T01:39:12.066Z,0
2018-04-18T01:40:12.790Z,0
2018-04-18T01:41:13.515Z,0
2018-04-18T01:42:14.240Z,0
2018-04-18T01:43:14.989Z,0
2018-04-18T01:44:15.713Z,0
2018-04-18T01:45:16.435Z,0
2018-04-18T01:46:17.187Z,0
2018-04-18T01:47:17.916Z,0
2018-04-18T01:48:18.639Z,0
2018-04-18T01:49:19.361Z,0
2018-04-18T01:50:20.084Z,0
2018-04-18T01:51:20.810Z,0
2018-04-18T01:52:21.544Z,0
2018-04-18T01:53:22.279Z,0
2018-04-18T01:54:23.002Z,0
2018-04-18T01:55:23.737Z,0
2018-04-18T01:56:24.464Z,0
2018-04-18T01:57:25.186Z,0
2018-04-18T01:58:25.922Z,0
2018-04-18T01:59:26.648Z,0
2018-04-18T02:00:27.380Z,0
2018-04-18T02:01:28.107Z,0
2018-04-18T02:02:28.834Z,0
2018-04-18T02:03:29.563Z,0
2018-04-18T02:04:30.323Z,0
2018-04-18T02:05:31.057Z,0
2018-04-18T02:06:31.794Z,0
2018-04-18T02:07:32.551Z,0
2018-04-18T02:08:33.273Z,0
2018-04-18T02:09:33.997Z,0
2018-04-18T02:10:34.721Z,0
2018-04-18T02:11:35.447Z,0
2018-04-18T02:12:36.181Z,0
2018-04-18T02:13:36.939Z,0
2018-04-18T02:14:37.664Z,0
2018-04-18T02:15:38.388Z,0
2018-04-18T02:16:39.111Z,0
2018-04-18T02:17:39.834Z,0
2018-04-18T02:18:40.557Z,0
2018-04-18T02:19:41.280Z,0
2018-04-18T02:20:42.032Z,0
2018-04-18T02:21:42.756Z,0
2018-04-18T02:22:43.480Z,0
2018-04-18T02:23:44.202Z,0
2018-04-18T02:24:44.948Z,0
2018-04-18T02:25:45.672Z,0
2018-04-18T02:26:46.394Z,0
2018-04-18T02:27:47.130Z,0
2018-04-18T02:28:47.899Z,0
2018-04-18T02:29:48.637Z,0
2018-04-18T02:30:49.362Z,0
2018-04-18T02:31:50.112Z,0
2018-04-18T02:32:50.837Z,0
2018-04-18T02:33:51.571Z,0
2018-04-18T02:34:52.329Z,0
2018-04-18T02:35:53.051Z,0
2018-04-18T02:36:53.775Z,0
2018-04-18T02:37:54.512Z,0
2018-04-18T02:38:55.235Z,0
2018-04-18T02:39:55.968Z,0
2018-04-18T02:40:56.739Z,0
2018-04-18T02:41:57.463Z,0
2018-04-18T02:42:58.185Z,0
2018-04-18T02:43:58.920Z,0
2018-04-18T02:44:59.647Z,0
2018-04-18T02:46:00.391Z,0
2018-04-18T02:47:01.105Z,0
2018-04-18T02:48:01.827Z,0
2018-04-18T02:49:02.551Z,0
2018-04-18T02:50:03.273Z,0
2018-04-18T02:51:04.011Z,0
2018-04-18T02:52:04.734Z,0
2018-04-18T02:53:05.480Z,0
2018-04-18T02:54:06.205Z,0
2018-04-18T02:55:06.928Z,0
2018-04-18T02:56:07.662Z,0
2018-04-18T02:57:09.802Z,0
2018-04-18T02:58:10.535Z,0
2018-04-18T02:59:11.252Z,0
2018-04-18T03:00:11.995Z,0
2018-04-18T03:01:12.732Z,0
2018-04-18T03:02:13.490Z,0
2018-04-18T03:03:14.212Z,0
2018-04-18T03:04:14.936Z,0
2018-04-18T03:05:15.680Z,0
2018-04-18T03:06:16.408Z,0
2018-04-18T03:07:17.128Z,0
2018-04-18T03:08:17.863Z,0
2018-04-18T03:09:18.590Z,0
2018-04-18T03:10:19.312Z,0
2018-04-18T03:11:20.037Z,0
2018-04-18T03:12:20.786Z,0
2018-04-18T03:13:21.510Z,0
2018-04-18T03:14:22.245Z,0
2018-04-18T03:15:22.969Z,0
2018-04-18T03:16:23.699Z,0
2018-04-18T03:17:24.451Z,0
2018-04-18T03:18:25.163Z,0
2018-04-18T03:19:25.911Z,0
2018-04-18T03:20:26.635Z,0
2018-04-18T03:21:27.360Z,0
2018-04-18T03:22:28.095Z,0
2018-04-18T03:23:28.816Z,0
2018-04-18T03:24:29.552Z,0
2018-04-18T03:25:30.276Z,0
2018-04-18T03:26:31.000Z,0
2018-04-18T03:27:31.734Z,0
2018-04-18T03:28:32.490Z,0
2018-04-18T03:29:33.214Z,0
2018-04-18T03:30:33.949Z,0
2018-04-18T03:31:34.675Z,0
2018-04-18T03:32:35.422Z,0
2018-04-18T03:33:36.165Z,0
2018-04-18T03:34:36.913Z,0
2018-04-18T03:35:37.639Z,0
2018-04-18T03:36:38.362Z,0
2018-04-18T03:37:39.096Z,0
2018-04-18T03:38:39.865Z,0
2018-04-18T03:39:40.599Z,0
2018-04-18T03:40:41.358Z,0
2018-04-18T03:41:42.078Z,0
2018-04-18T03:42:42.836Z,0
2018-04-18T03:43:43.595Z,0
2018-04-18T03:44:44.317Z,0
2018-04-18T03:45:45.066Z,0
2018-04-18T03:46:45.787Z,0
2018-04-18T03:47:46.514Z,0
2018-04-18T03:48:47.249Z,0
2018-04-18T03:49:48.008Z,0
2018-04-18T03:50:48.756Z,0
2018-04-18T03:51:49.505Z,0
2018-04-18T03:52:50.239Z,0
2018-04-18T03:53:50.973Z,0
2018-04-18T03:54:51.742Z,0
2018-04-18T03:55:52.466Z,4
2018-04-18T03:56:53.225Z,4
2018-04-18T03:57:53.948Z,0
2018-04-18T03:58:54.682Z,4
2018-04-18T03:59:55.409Z,4
2018-04-18T04:00:56.130Z,4
2018-04-18T04:01:56.889Z,4
2018-04-18T04:02:57.627Z,4
2018-04-18T04:03:58.360Z,8
2018-04-18T04:04:59.083Z,8
2018-04-18T04:05:59.810Z,8
2018-04-18T04:07:00.530Z,8
2018-04-18T04:08:01.258Z,12
2018-04-18T04:09:01.979Z,16
2018-04-18T04:10:02.740Z,20
2018-04-18T04:11:03.473Z,20
2018-04-18T04:12:04.208Z,20
2018-04-18T04:13:04.931Z,28
2018-04-18T04:14:05.656Z,32
2018-04-18T04:15:06.380Z,36
2018-04-18T04:16:07.102Z,44
2018-04-18T04:17:07.837Z,52
2018-04-18T04:18:08.607Z,56
2018-04-18T04:19:09.329Z,64
2018-04-18T04:20:10.053Z,72
2018-04-18T04:21:10.779Z,84
2018-04-18T04:22:11.503Z,96
2018-04-18T04:23:12.233Z,104
2018-04-18T04:24:12.975Z,116
2018-04-18T04:25:13.699Z,128
2018-04-18T04:26:14.448Z,144
2018-04-18T04:27:15.183Z,156
2018-04-18T04:28:15.908Z,168
2018-04-18T04:29:16.633Z,184
2018-04-18T04:30:17.361Z,200
2018-04-18T04:31:18.086Z,220
2018-04-18T04:32:18.841Z,236
2018-04-18T04:33:19.566Z,256
2018-04-18T04:34:20.301Z,276
2018-04-18T04:35:21.074Z,296
2018-04-18T04:36:21.801Z,316
2018-04-18T04:37:22.529Z,336
2018-04-18T04:38:23.304Z,360
2018-04-18T04:39:24.008Z,384
2018-04-18T04:40:24.736Z,408
2018-04-18T04:41:25.463Z,432
2018-04-18T04:42:26.201Z,460
2018-04-18T04:43:26.926Z,484
2018-04-18T04:44:27.676Z,512
2018-04-18T04:45:28.412Z,536
2018-04-18T04:46:29.141Z,564
2018-04-18T04:47:29.877Z,596
2018-04-18T04:48:30.603Z,624
2018-04-18T04:49:31.341Z,652
2018-04-18T04:50:32.078Z,680
2018-04-18T04:51:32.806Z,712
2018-04-18T04:52:33.532Z,740
2018-04-18T04:53:34.258Z,772
2018-04-18T04:54:34.985Z,800
2018-04-18T04:55:35.713Z,832
2018-04-18T04:56:36.450Z,864
2018-04-18T04:57:37.226Z,896
2018-04-18T04:58:37.995Z,932
2018-04-18T04:59:38.724Z,960
2018-04-18T05:00:39.448Z,992
2018-04-18T05:01:40.199Z,1024
2018-04-18T05:02:40.927Z,1052
2018-04-18T05:03:41.655Z,1088
2018-04-18T05:04:42.408Z,1120
2018-04-18T05:05:43.147Z,1148
2018-04-18T05:06:43.887Z,1180
2018-04-18T05:07:44.661Z,1208
2018-04-18T05:08:45.391Z,1240
2018-04-18T05:09:46.118Z,1268
2018-04-18T05:10:46.847Z,1300
2018-04-18T05:11:47.574Z,1328
2018-04-18T05:12:48.313Z,1356
2018-04-18T05:13:49.040Z,1388
2018-04-18T05:14:49.765Z,1416
2018-04-18T05:15:50.504Z,1440
2018-04-18T05:16:51.245Z,1476
2018-04-18T05:17:52.005Z,1504
2018-04-18T05:18:52.734Z,1528
2018-04-18T05:19:53.475Z,1560
2018-04-18T05:20:54.202Z,1588
2018-04-18T05:21:54.955Z,1620
2018-04-18T05:22:55.684Z,1644
2018-04-18T05:23:56.422Z,1672
2018-04-18T05:24:57.197Z,1700
2018-04-18T05:25:57.961Z,1736
2018-04-18T05:26:58.701Z,1760
2018-04-18T05:27:59.430Z,1792
2018-04-18T05:29:00.158Z,1820
2018-04-18T05:30:00.886Z,1848
2018-04-18T05:31:01.635Z,1872
2018-04-18T05:32:02.387Z,1904
2018-04-18T05:33:03.114Z,1932
2018-04-18T05:34:03.843Z,1964
2018-04-18T05:35:04.573Z,1992
2018-04-18T05:36:05.311Z,2016
2018-04-18T05:37:06.051Z,2044
2018-04-18T05:38:06.789Z,2068
2018-04-18T05:39:07.557Z,2096
2018-04-18T05:40:08.292Z,2124
2018-04-18T05:41:09.021Z,2160
2018-04-18T05:42:09.761Z,2184
2018-04-18T05:43:10.492Z,2208
2018-04-18T05:44:11.231Z,2236
2018-04-18T05:45:11.989Z,2268
2018-04-18T05:46:12.700Z,2300
2018-04-18T05:47:13.428Z,2336
2018-04-18T05:48:14.167Z,2364
2018-04-18T05:49:14.906Z,2392
2018-04-18T05:50:15.633Z,2424
2018-04-18T05:51:16.361Z,2448
2018-04-18T05:52:17.125Z,2476
2018-04-18T05:53:17.890Z,2504
2018-04-18T05:54:18.620Z,2528
2018-04-18T05:55:19.363Z,2560
2018-04-18T05:56:20.115Z,2584
2018-04-18T05:57:20.868Z,2612
2018-04-18T05:58:21.598Z,2644
2018-04-18T05:59:22.360Z,2672
2018-04-18T06:00:23.088Z,2700
2018-04-18T06:01:23.839Z,2736
2018-04-18T06:02:24.567Z,2760
2018-04-18T06:03:25.299Z,2788
2018-04-18T06:04:26.028Z,2808
2018-04-18T06:05:26.774Z,2840
2018-04-18T06:06:27.537Z,2860
2018-04-18T06:07:28.269Z,2888
2018-04-18T06:08:29.003Z,2916
2018-04-18T06:09:29.763Z,2944
2018-04-18T06:10:30.521Z,2980
2018-04-18T06:11:31.252Z,3012
2018-04-18T06:12:31.985Z,3044
2018-04-18T06:13:32.712Z,3080
2018-04-18T06:14:33.464Z,3108
2018-04-18T06:15:34.214Z,3140
2018-04-18T06:16:34.967Z,3164
2018-04-18T06:17:35.713Z,3208
2018-04-18T06:18:36.436Z,3244
2018-04-18T06:19:37.178Z,3324
2018-04-18T06:20:37.943Z,3376
2018-04-18T06:21:38.673Z,3476
2018-04-18T06:22:39.415Z,3608
2018-04-18T06:23:40.158Z,3776
2018-04-18T06:24:40.921Z,3988
2018-04-18T06:25:41.653Z,4224
2018-04-18T06:26:42.385Z,4500
2018-04-18T06:27:43.118Z,4788
2018-04-18T06:28:43.845Z,5016
2018-04-18T06:29:44.574Z,5172
2018-04-18T06:30:45.317Z,5276
2018-04-18T06:31:46.050Z,5372
2018-04-18T06:32:46.782Z,5472
2018-04-18T06:33:47.513Z,5636
2018-04-18T06:34:48.250Z,5732
2018-04-18T06:35:49.005Z,5840
2018-04-18T06:36:49.766Z,5968
2018-04-18T06:37:50.498Z,6140
2018-04-18T06:38:51.255Z,6344
2018-04-18T06:39:51.991Z,6628
2018-04-18T06:40:52.719Z,7136
2018-04-18T06:41:53.462Z,9388
2018-04-18T06:42:54.208Z,14600
2018-04-18T06:43:54.989Z,20192
2018-04-18T06:44:55.727Z,22720
2018-04-18T06:45:56.523Z,23936
2018-04-18T06:46:57.218Z,23328
2018-04-18T06:47:57.977Z,21504
2018-04-18T06:48:58.714Z,20512
2018-04-18T06:49:59.463Z,21504
2018-04-18T06:51:00.240Z,23552
2018-04-18T06:52:01.021Z,24352
2018-04-18T06:53:01.796Z,24576
2018-04-18T06:54:02.540Z,25248
2018-04-18T06:55:03.311Z,25920
2018-04-18T06:56:04.049Z,25536
2018-04-18T06:57:04.825Z,25536
2018-04-18T06:58:05.558Z,25888
2018-04-18T06:59:06.330Z,25664
2018-04-18T07:00:07.067Z,25664
2018-04-18T07:01:07.817Z,26528
2018-04-18T07:02:08.567Z,28128
2018-04-18T07:03:09.309Z,29024
2018-04-18T07:04:10.049Z,29824
2018-04-18T07:05:10.788Z,30176
2018-04-18T07:06:11.525Z,30688
2018-04-18T07:07:12.263Z,30240
2018-04-18T07:08:13.001Z,29152
2018-04-18T07:09:13.749Z,29056
2018-04-18T07:10:14.524Z,28480
2018-04-18T07:11:15.307Z,20832
2018-04-18T07:12:16.009Z,11920
2018-04-18T07:13:16.762Z,9888
2018-04-18T07:14:17.502Z,9348
2018-04-18T07:15:18.250Z,9020
2018-04-18T07:16:18.990Z,8864
2018-04-18T07:17:19.742Z,8796
2018-04-18T07:18:20.477Z,8720
2018-04-18T07:19:21.221Z,8692
2018-04-18T07:20:21.991Z,8672
2018-04-18T07:21:22.779Z,8704
2018-04-18T07:22:23.561Z,8776
2018-04-18T07:23:24.282Z,8816
2018-04-18T07:24:25.059Z,8884
2018-04-18T07:25:25.801Z,8936
2018-04-18T07:26:26.538Z,9024
2018-04-18T07:27:27.289Z,9120
2018-04-18T07:28:28.029Z,9280
2018-04-18T07:29:28.768Z,9408
2018-04-18T07:30:29.511Z,9544
2018-04-18T07:31:30.252Z,9776
2018-04-18T07:32:31.029Z,10008
2018-04-18T07:33:31.771Z,10332
2018-04-18T07:34:32.514Z,10768
2018-04-18T07:35:33.278Z,11460
2018-04-18T07:36:34.024Z,12964
2018-04-18T07:37:34.768Z,21536
2018-04-18T07:38:35.511Z,35392
2018-04-18T07:39:36.263Z,41280
2018-04-18T07:40:37.018Z,42144
2018-04-18T07:41:37.797Z,42656
2018-04-18T07:42:38.569Z,43776
2018-04-18T07:43:39.312Z,44896
2018-04-18T07:44:40.068Z,45984
2018-04-18T07:45:40.856Z,47104
2018-04-18T07:46:41.639Z,47072
2018-04-18T07:47:42.367Z,47936
2018-04-18T07:48:43.123Z,47392
2018-04-18T07:49:43.867Z,47232
2018-04-18T07:50:44.610Z,46912
2018-04-18T07:51:45.390Z,47840
2018-04-18T07:52:46.135Z,46976
2018-04-18T07:53:46.892Z,47360
2018-04-18T07:54:47.646Z,47968
2018-04-18T07:55:48.395Z,47168
2018-04-18T07:56:49.141Z,48000
2018-04-18T07:57:49.887Z,48096
2018-04-18T07:58:50.643Z,48512
2018-04-18T07:59:51.391Z,48672
2018-04-18T08:00:52.135Z,49472
2018-04-18T08:01:52.930Z,51008
2018-04-18T08:02:53.636Z,51936
2018-04-18T08:03:54.416Z,52288
2018-04-18T08:04:55.196Z,52064
2018-04-18T08:05:55.943Z,53536
2018-04-18T08:06:56.688Z,52640
2018-04-18T08:07:57.446Z,52352
2018-04-18T08:08:58.226Z,52896
2018-04-18T08:09:58.980Z,51552
2018-04-18T08:10:59.740Z,51040
2018-04-18T08:12:00.499Z,50112
2018-04-18T08:13:01.246Z,52000
2018-04-18T08:14:02.020Z,52608
2018-04-18T08:15:02.766Z,53472
2018-04-18T08:16:03.525Z,55040
2018-04-18T08:17:04.307Z,55424
2018-04-18T08:18:05.066Z,55584
2018-04-18T08:19:05.812Z,54784
2018-04-18T08:20:06.580Z,55776
2018-04-18T08:21:07.326Z,57728
2018-04-18T08:22:08.089Z,57952
2018-04-18T08:23:08.871Z,57376
2018-04-18T08:24:09.628Z,58176
2018-04-18T08:25:10.376Z,61056
2018-04-18T08:26:11.151Z,60320
2018-04-18T08:27:11.912Z,59616
2018-04-18T08:28:12.661Z,58688
2018-04-18T08:29:13.412Z,58496
2018-04-18T08:30:14.164Z,58848
2018-04-18T08:31:14.916Z,58784
2018-04-18T08:32:15.692Z,60000
2018-04-18T08:33:16.440Z,62688
2018-04-18T08:34:17.188Z,62272
2018-04-18T08:35:17.964Z,60640
2018-04-18T08:36:18.736Z,62144
2018-04-18T08:37:19.488Z,64032
2018-04-18T08:38:20.241Z,61568
2018-04-18T08:39:20.997Z,59680
2018-04-18T08:40:21.760Z,60256
2018-04-18T08:41:22.517Z,61568
2018-04-18T08:42:23.271Z,63776
2018-04-18T08:43:24.029Z,62848
2018-04-18T08:44:24.778Z,61568
2018-04-18T08:45:25.565Z,62816
2018-04-18T08:46:26.329Z,63328
2018-04-18T08:47:27.089Z,61568
2018-04-18T08:48:27.882Z,60608
2018-04-18T08:49:28.674Z,63424
2018-04-18T08:50:29.448Z,63488
2018-04-18T08:51:30.201Z,63712
2018-04-18T08:52:30.971Z,64640
2018-04-18T08:53:31.740Z,64672
2018-04-18T08:54:32.492Z,67968
2018-04-18T08:55:33.262Z,65120
2018-04-18T08:56:34.025Z,66304
2018-04-18T08:57:34.790Z,67712
2018-04-18T08:58:35.545Z,67232
2018-04-18T08:59:36.308Z,67296
2018-04-18T09:00:37.076Z,67936
2018-04-18T09:01:37.831Z,65184
2018-04-18T09:02:38.612Z,63808
2018-04-18T09:03:39.389Z,65696
2018-04-18T09:04:40.155Z,62560
2018-04-18T09:05:40.924Z,63808
2018-04-18T09:06:41.713Z,64384
2018-04-18T09:07:42.469Z,67136
2018-04-18T09:08:43.226Z,68832
2018-04-18T09:09:44.059Z,68256
2018-04-18T09:10:44.787Z,69824
2018-04-18T09:11:45.551Z,66880
2018-04-18T09:12:46.315Z,63712
2018-04-18T09:13:47.107Z,62976
2018-04-18T09:14:47.857Z,62784
2018-04-18T09:15:48.638Z,63360
2018-04-18T09:16:49.378Z,64288
2018-04-18T09:17:50.133Z,67648
2018-04-18T09:18:50.890Z,71776
2018-04-18T09:19:51.645Z,71104
2018-04-18T09:20:52.403Z,67360
2018-04-18T09:21:53.156Z,68256
2018-04-18T09:22:53.924Z,67328
2018-04-18T09:23:54.678Z,63424
2018-04-18T09:24:55.445Z,62048
2018-04-18T09:25:56.235Z,65792
2018-04-18T09:26:56.990Z,65824
2018-04-18T09:27:57.768Z,64896
2018-04-18T09:28:58.546Z,69280
2018-04-18T09:29:59.314Z,67040
2018-04-18T09:31:00.081Z,68032
2018-04-18T09:32:00.882Z,69472
2018-04-18T09:33:01.649Z,69600
2018-04-18T09:34:02.457Z,69920
2018-04-18T09:35:03.204Z,68448
2018-04-18T09:36:03.958Z,74144
2018-04-18T09:37:04.727Z,76768
2018-04-18T09:38:05.487Z,75808
2018-04-18T09:39:06.236Z,80448
2018-04-18T09:40:07.003Z,75072
2018-04-18T09:41:07.761Z,80128
2018-04-18T09:42:08.553Z,80320
2018-04-18T09:43:09.306Z,73472
2018-04-18T09:44:10.060Z,77600
2018-04-18T09:45:10.826Z,76704
2018-04-18T09:46:11.617Z,78368
2018-04-18T09:47:12.335Z,77376
2018-04-18T09:48:13.101Z,76000
2018-04-18T09:49:13.864Z,78688
2018-04-18T09:50:14.633Z,74400
2018-04-18T09:51:15.431Z,77824
2018-04-18T09:52:16.185Z,75424
2018-04-18T09:53:16.944Z,76800
2018-04-18T09:54:17.717Z,75456
2018-04-18T09:55:18.475Z,75936
2018-04-18T09:56:19.246Z,74208
2018-04-18T09:57:20.027Z,75488
2018-04-18T09:58:20.810Z,76864
2018-04-18T09:59:21.597Z,73504
2018-04-18T10:00:22.353Z,73920
2018-04-18T10:01:23.105Z,72832
2018-04-18T10:02:23.868Z,72896
2018-04-18T10:03:24.664Z,70208
2018-04-18T10:04:25.426Z,67392
2018-04-18T10:05:26.184Z,67936
2018-04-18T10:06:26.962Z,72576
2018-04-18T10:07:27.742Z,66880
2018-04-18T10:08:28.492Z,69472
2018-04-18T10:09:29.284Z,67584
2018-04-18T10:10:30.049Z,73824
2018-04-18T10:11:30.811Z,73824
2018-04-18T10:12:31.598Z,71328
2018-04-18T10:13:32.370Z,70560
2018-04-18T10:14:33.136Z,70112
2018-04-18T10:15:33.886Z,69440
2018-04-18T10:16:34.657Z,77024
2018-04-18T10:17:35.423Z,77632
2018-04-18T10:18:36.189Z,77888
2018-04-18T10:19:36.975Z,78400
2018-04-18T10:20:37.744Z,78432
2018-04-18T10:21:38.532Z,76416
2018-04-18T10:22:39.291Z,76800
2018-04-18T10:23:40.048Z,77696
2018-04-18T10:24:40.801Z,78144
2018-04-18T10:25:41.571Z,75968
2018-04-18T10:26:42.326Z,78144
2018-04-18T10:27:43.091Z,80448
2018-04-18T10:28:43.847Z,76384
2018-04-18T10:29:44.601Z,78528
2018-04-18T10:30:45.352Z,79360
2018-04-18T10:31:46.124Z,79648
2018-04-18T10:32:46.878Z,78208
2018-04-18T10:33:47.649Z,78592
2018-04-18T10:34:48.423Z,79744
2018-04-18T10:35:49.188Z,81408
2018-04-18T10:36:49.944Z,82880
2018-04-18T10:37:50.712Z,82688
2018-04-18T10:38:51.492Z,82560
2018-04-18T10:39:52.245Z,81856
2018-04-18T10:40:52.999Z,74944
2018-04-18T10:41:53.750Z,74432
2018-04-18T10:42:54.505Z,77440
2018-04-18T10:43:55.296Z,77088
2018-04-18T10:44:56.083Z,78784
2018-04-18T10:45:56.839Z,79392
2018-04-18T10:46:57.594Z,81184
2018-04-18T10:47:58.359Z,81504
2018-04-18T10:48:59.111Z,83168
2018-04-18T10:49:59.866Z,83040
2018-04-18T10:51:00.629Z,84032
2018-04-18T10:52:01.393Z,85312
2018-04-18T10:53:02.149Z,84352
2018-04-18T10:54:02.901Z,84032
2018-04-18T10:55:03.658Z,87104
2018-04-18T10:56:04.428Z,87328
2018-04-18T10:57:05.177Z,88512
2018-04-18T10:58:05.927Z,91488
2018-04-18T10:59:06.684Z,88864
2018-04-18T11:00:07.443Z,86368
2018-04-18T11:01:08.210Z,91200
2018-04-18T11:02:08.962Z,87392
2018-04-18T11:03:09.715Z,84928
2018-04-18T11:04:10.487Z,81344
2018-04-18T11:05:11.263Z,83616
2018-04-18T11:06:12.015Z,84736
2018-04-18T11:07:12.776Z,82208
2018-04-18T11:08:13.531Z,78656
2018-04-18T11:09:14.303Z,83520
2018-04-18T11:10:15.065Z,84160
2018-04-18T11:11:15.815Z,78976
2018-04-18T11:12:16.578Z,79648
2018-04-18T11:13:17.385Z,79840
2018-04-18T11:14:18.146Z,77920
2018-04-18T11:15:18.931Z,77760
2018-04-18T11:16:19.715Z,74688
2018-04-18T11:17:20.469Z,70400
2018-04-18T11:18:21.227Z,72864
2018-04-18T11:19:21.987Z,76672
2018-04-18T11:20:22.772Z,76704
2018-04-18T11:21:23.521Z,78976
2018-04-18T11:22:24.283Z,78816
2018-04-18T11:23:25.049Z,75776
2018-04-18T11:24:25.847Z,77312
2018-04-18T11:25:26.614Z,80928
2018-04-18T11:26:27.368Z,78784
2018-04-18T11:27:28.122Z,77632
2018-04-18T11:28:28.871Z,77344
2018-04-18T11:29:29.624Z,77280
2018-04-18T11:30:30.396Z,78496
2018-04-18T11:31:31.158Z,78656
2018-04-18T11:32:31.923Z,79712
2018-04-18T11:33:32.671Z,81792
2018-04-18T11:34:33.425Z,81344
2018-04-18T11:35:34.211Z,80704
2018-04-18T11:36:34.962Z,83264
2018-04-18T11:37:35.713Z,83360
2018-04-18T11:38:36.489Z,84512
2018-04-18T11:39:37.251Z,80288
2018-04-18T11:40:38.036Z,80384
2018-04-18T11:41:38.800Z,82368
2018-04-18T11:42:39.582Z,78944
2018-04-18T11:43:40.344Z,77408
2018-04-18T11:44:41.095Z,78720
2018-04-18T11:45:41.856Z,78464
2018-04-18T11:46:42.604Z,74880
2018-04-18T11:47:43.352Z,72672
2018-04-18T11:48:44.100Z,72320
2018-04-18T11:49:44.883Z,69856
2018-04-18T11:50:45.631Z,73664
2018-04-18T11:51:46.381Z,72320
2018-04-18T11:52:47.131Z,70688
2018-04-18T11:53:47.915Z,74432
2018-04-18T11:54:48.665Z,72800
2018-04-18T11:55:49.430Z,73024
2018-04-18T11:56:50.217Z,73024
2018-04-18T11:57:50.968Z,70688
2018-04-18T11:58:51.751Z,74656
2018-04-18T11:59:52.535Z,72224
2018-04-18T12:00:53.286Z,71104
2018-04-18T12:01:54.037Z,68192
2018-04-18T12:02:54.787Z,69088
2018-04-18T12:03:55.541Z,72352
2018-04-18T12:04:56.295Z,68352
2018-04-18T12:05:57.058Z,68288
2018-04-18T12:06:57.810Z,68384
2018-04-18T12:07:58.560Z,69408
2018-04-18T12:08:59.343Z,72064
2018-04-18T12:10:00.131Z,70208
2018-04-18T12:11:00.883Z,72256
2018-04-18T12:12:01.676Z,71744
2018-04-18T12:13:02.470Z,70016
2018-04-18T12:14:03.226Z,69984
2018-04-18T12:15:03.984Z,70400
2018-04-18T12:16:04.765Z,68928
2018-04-18T12:17:05.519Z,68448
2018-04-18T12:18:06.282Z,66592
2018-04-18T12:19:07.047Z,67104
2018-04-18T12:20:07.813Z,64416
2018-04-18T12:21:08.610Z,63712
2018-04-18T12:22:09.365Z,59136
2018-04-18T12:23:10.153Z,64032
2018-04-18T12:24:10.932Z,69888
2018-04-18T12:25:11.721Z,69600
2018-04-18T12:26:12.487Z,68928
2018-04-18T12:27:13.243Z,67840
2018-04-18T12:28:14.023Z,68384
2018-04-18T12:29:14.786Z,70592
2018-04-18T12:30:15.536Z,69728
2018-04-18T12:31:16.322Z,63008
2018-04-18T12:32:17.108Z,59456
2018-04-18T12:33:17.893Z,52160
2018-04-18T12:34:18.645Z,56928
2018-04-18T12:35:19.396Z,54048
2018-04-18T12:36:20.147Z,56480
2018-04-18T12:37:20.899Z,60736
2018-04-18T12:38:21.651Z,60160
2018-04-18T12:39:22.431Z,56608
2018-04-18T12:40:23.176Z,62656
2018-04-18T12:41:23.939Z,70240
2018-04-18T12:42:24.694Z,65728
2018-04-18T12:43:25.483Z,65824
2018-04-18T12:44:26.229Z,66080
2018-04-18T12:45:27.014Z,59200
2018-04-18T12:46:27.776Z,53472
2018-04-18T12:47:28.560Z,53280
2018-04-18T12:48:29.319Z,53376
2018-04-18T12:49:30.072Z,53408
2018-04-18T12:50:30.850Z,51584
2018-04-18T12:51:31.603Z,53984
2018-04-18T12:52:32.355Z,57344
2018-04-18T12:53:33.111Z,56160
2018-04-18T12:54:33.866Z,57024
2018-04-18T12:55:34.651Z,56672
2018-04-18T12:56:35.405Z,57376
2018-04-18T12:57:36.211Z,58016
2018-04-18T12:58:36.974Z,59712
2018-04-18T12:59:37.727Z,57664
2018-04-18T13:00:38.491Z,55488
2018-04-18T13:01:39.252Z,55136
2018-04-18T13:02:40.017Z,58112
2018-04-18T13:03:40.778Z,58944
2018-04-18T13:04:41.543Z,57248
2018-04-18T13:05:42.307Z,56384
2018-04-18T13:06:43.061Z,54752
2018-04-18T13:07:43.811Z,55968
2018-04-18T13:08:44.576Z,54528
2018-04-18T13:09:45.333Z,54496
2018-04-18T13:10:46.085Z,56800
2018-04-18T13:11:46.862Z,55104
2018-04-18T13:12:47.626Z,54016
2018-04-18T13:13:48.413Z,62720
2018-04-18T13:14:49.169Z,60960
2018-04-18T13:15:49.941Z,61056
2018-04-18T13:16:50.728Z,59840
2018-04-18T13:17:51.480Z,57472
2018-04-18T13:18:52.233Z,56512
2018-04-18T13:19:53.002Z,57216
2018-04-18T13:20:53.767Z,57376
2018-04-18T13:21:54.516Z,54432
2018-04-18T13:22:55.271Z,56000
2018-04-18T13:23:56.022Z,53184
2018-04-18T13:24:56.798Z,51904
2018-04-18T13:25:57.552Z,49024
2018-04-18T13:26:58.317Z,47776
2018-04-18T13:27:59.067Z,50656
2018-04-18T13:28:59.841Z,51008
2018-04-18T13:30:00.618Z,50784
2018-04-18T13:31:01.400Z,51264
2018-04-18T13:32:02.135Z,51616
2018-04-18T13:33:02.922Z,46112
2018-04-18T13:34:03.671Z,45344
2018-04-18T13:35:04.421Z,43680
2018-04-18T13:36:05.183Z,44224
2018-04-18T13:37:05.947Z,45632
2018-04-18T13:38:06.700Z,46816
2018-04-18T13:39:07.448Z,41280
2018-04-18T13:40:08.202Z,30848
2018-04-18T13:41:08.976Z,20576
2018-04-18T13:42:09.738Z,18336